Time;durP1;ratioP1;P1;durP2;ratioP2;P2;SDS_P1;SDS_P2;PMS_P1;PMS_P2;Temp;Humidity;BMP_temperature;BMP_pressure;BME280_temperature;BME280_humidity;BME280_pressure;Samples;Min_cycle;Max_cycle;Signal;HPM_P1;HPM_P2
2021/07/16 00:01:52;;;;;;;19.80;10.25;;;18.00;94.50;;;;;;5093885;28;20104;-77
2021/07/16 00:04:18;;;;;;;25.40;11.13;;;18.00;94.40;;;;;;5093270;28;20028;-77
2021/07/16 00:06:44;;;;;;;20.27;11.23;;;18.00;94.50;;;;;;5093884;28;20043;-77
2021/07/16 00:09:09;;;;;;;19.25;10.35;;;18.00;94.50;;;;;;5093595;28;20035;-77
2021/07/16 00:11:35;;;;;;;26.38;10.75;;;18.00;94.50;;;;;;5073955;28;20485;-77
2021/07/16 00:14:01;;;;;;;19.88;9.85;;;18.00;94.50;;;;;;5073521;28;20041;-77
2021/07/16 00:16:27;;;;;;;19.95;10.32;;;18.00;94.60;;;;;;5091973;28;20557;-77
2021/07/16 00:18:53;;;;;;;25.83;10.63;;;18.00;94.60;;;;;;5092548;28;20035;-77
2021/07/16 00:21:18;;;;;;;28.20;10.88;;;18.00;94.50;;;;;;5075887;28;20032;-77
2021/07/16 00:23:44;;;;;;;25.05;11.10;;;17.90;94.60;;;;;;5073327;28;20024;-77
2021/07/16 00:26:14;;;;;;;23.98;10.00;;;18.00;94.90;;;;;;5083455;28;20028;-77
2021/07/16 00:28:41;;;;;;;22.77;11.15;;;17.90;94.60;;;;;;5072916;28;20041;-77
2021/07/16 00:31:07;;;;;;;22.30;11.23;;;17.90;94.50;;;;;;5087763;28;20077;-77
2021/07/16 00:33:33;;;;;;;21.05;10.80;;;17.90;94.50;;;;;;5091683;28;20020;-77
2021/07/16 00:35:59;;;;;;;27.70;10.65;;;17.90;94.60;;;;;;5091911;28;20028;-77
2021/07/16 00:38:26;;;;;;;18.63;10.07;;;17.90;94.60;;;;;;5082521;28;20020;-77
2021/07/16 00:40:51;;;;;;;24.08;10.35;;;17.90;94.60;;;;;;5092470;28;20036;-77
2021/07/16 00:43:17;;;;;;;23.15;10.50;;;17.90;94.60;;;;;;5085950;28;20141;-77
2021/07/16 00:45:43;;;;;;;29.33;11.77;;;17.90;94.60;;;;;;5074584;28;20044;-77
2021/07/16 00:48:08;;;;;;;24.80;11.05;;;17.90;94.60;;;;;;5071765;28;20036;-77
2021/07/16 00:50:36;;;;;;;23.08;10.40;;;17.90;94.50;;;;;;5072077;28;20474;-77
2021/07/16 00:53:03;;;;;;;21.88;10.50;;;17.90;94.50;;;;;;5073044;28;20033;-77
2021/07/16 00:55:30;;;;;;;24.88;11.18;;;17.90;94.50;;;;;;5078959;28;20024;-77
2021/07/16 00:57:56;;;;;;;22.88;9.88;;;17.90;94.60;;;;;;5091340;28;20040;-77
2021/07/16 01:00:23;;;;;;;23.92;9.95;;;17.90;94.50;;;;;;5081467;28;20029;-77
2021/07/16 01:02:48;;;;;;;20.20;8.95;;;17.90;94.50;;;;;;5072671;28;20044;-77
2021/07/16 01:05:19;;;;;;;26.40;9.95;;;17.80;94.40;;;;;;5063787;28;20031;-77
2021/07/16 01:07:47;;;;;;;18.83;9.20;;;17.90;94.30;;;;;;5092454;28;20081;-77
2021/07/16 01:10:14;;;;;;;17.95;9.43;;;17.80;94.20;;;;;;5092221;28;20477;-77
2021/07/16 01:12:42;;;;;;;19.38;10.02;;;17.80;94.30;;;;;;5092853;28;20082;-77
2021/07/16 01:15:10;;;;;;;23.73;9.65;;;17.80;94.30;;;;;;5091418;28;20027;-77
2021/07/16 01:17:36;;;;;;;25.80;9.70;;;17.70;94.30;;;;;;5075286;28;20047;-77
2021/07/16 01:20:07;;;;;;;22.65;8.45;;;17.70;94.40;;;;;;5072245;28;20078;-77
2021/07/16 01:22:36;;;;;;;24.88;9.15;;;17.70;94.50;;;;;;5074314;28;20556;-77
2021/07/16 01:25:15;;;;;;;17.42;8.55;;;17.80;94.50;;;;;;5075469;28;20083;-77
2021/07/16 01:27:43;;;;;;;16.33;8.88;;;17.80;94.50;;;;;;5075531;28;20040;-77
2021/07/16 01:30:11;;;;;;;21.25;8.90;;;17.80;94.40;;;;;;5076533;28;20048;-77
2021/07/16 01:32:37;;;;;;;19.87;9.83;;;17.80;94.40;;;;;;5079894;28;20066;-77
2021/07/16 01:35:05;;;;;;;24.40;9.77;;;17.80;94.30;;;;;;5084181;28;20310;-77
2021/07/16 01:37:31;;;;;;;25.02;10.25;;;17.70;94.30;;;;;;5076248;28;20119;-77
2021/07/16 01:40:00;;;;;;;21.65;8.20;;;17.70;94.30;;;;;;5076403;28;20032;-77
2021/07/16 01:42:34;;;;;;;21.08;8.88;;;17.70;94.30;;;;;;5077409;28;20543;-76
2021/07/16 01:45:00;;;;;;;16.40;8.15;;;17.70;94.20;;;;;;5091570;28;20532;-77
2021/07/16 01:47:26;;;;;;;23.42;9.30;;;17.70;94.20;;;;;;5077676;28;20028;-77
2021/07/16 01:49:52;;;;;;;21.95;8.82;;;17.70;94.20;;;;;;5076091;28;20095;-77
2021/07/16 01:52:18;;;;;;;20.48;8.50;;;17.70;94.20;;;;;;5088477;28;20029;-77
2021/07/16 01:54:43;;;;;;;24.77;9.13;;;17.60;94.20;;;;;;5096109;28;20024;-77
2021/07/16 01:57:09;;;;;;;24.10;9.40;;;17.70;94.10;;;;;;5096015;28;20103;-77
2021/07/16 01:59:35;;;;;;;17.88;8.35;;;17.60;94.10;;;;;;5074788;28;20370;-77
2021/07/16 02:02:01;;;;;;;22.92;8.40;;;17.60;94.10;;;;;;5075953;28;20153;-77
2021/07/16 02:04:26;;;;;;;18.10;9.00;;;17.60;94.20;;;;;;5095194;28;20507;-77
2021/07/16 02:06:52;;;;;;;27.25;9.73;;;17.60;94.20;;;;;;5079914;28;20024;-77
2021/07/16 02:09:18;;;;;;;23.45;8.95;;;17.60;94.20;;;;;;5085562;28;20028;-77
2021/07/16 02:11:43;;;;;;;20.05;9.60;;;17.60;94.20;;;;;;5068443;28;20044;-77
2021/07/16 02:14:09;;;;;;;23.45;10.10;;;17.50;94.10;;;;;;5075904;28;20040;-77
2021/07/16 02:16:35;;;;;;;20.30;9.50;;;17.60;94.20;;;;;;5074466;28;20055;-77
2021/07/16 02:19:00;;;;;;;24.20;9.15;;;17.50;94.10;;;;;;5086878;28;20028;-77
2021/07/16 02:21:26;;;;;;;23.98;9.35;;;17.50;94.10;;;;;;5095573;28;20540;-77
2021/07/16 02:23:52;;;;;;;19.45;9.40;;;17.50;94.10;;;;;;5077567;28;20020;-77
2021/07/16 02:26:17;;;;;;;22.30;9.13;;;17.50;94.10;;;;;;5089092;28;20586;-77
2021/07/16 02:28:43;;;;;;;21.15;9.18;;;17.50;94.00;;;;;;5094703;28;20051;-77
2021/07/16 02:31:11;;;;;;;22.33;9.30;;;17.50;93.90;;;;;;5095622;28;20421;-77
2021/07/16 02:33:37;;;;;;;27.30;9.40;;;17.50;93.90;;;;;;5077191;28;20028;-77
2021/07/16 02:36:04;;;;;;;26.60;9.65;;;17.40;93.90;;;;;;5085548;28;20024;-77
2021/07/16 02:38:30;;;;;;;24.88;10.10;;;17.40;93.90;;;;;;5095501;28;20461;-77
2021/07/16 02:40:56;;;;;;;19.45;8.75;;;17.40;93.80;;;;;;5080386;28;20029;-77
2021/07/16 02:43:22;;;;;;;23.08;9.07;;;17.40;93.80;;;;;;5073445;28;20061;-77
2021/07/16 02:45:49;;;;;;;18.02;9.40;;;17.40;93.80;;;;;;5075604;28;20020;-77
2021/07/16 02:48:15;;;;;;;19.98;9.10;;;17.40;93.90;;;;;;5073959;28;20071;-77
2021/07/16 02:50:43;;;;;;;22.05;9.07;;;17.40;93.80;;;;;;5075569;28;20028;-77
2021/07/16 02:53:11;;;;;;;21.35;9.05;;;17.40;93.80;;;;;;5089088;28;20417;-77
2021/07/16 02:55:37;;;;;;;18.25;9.18;;;17.40;93.80;;;;;;5088066;28;20086;-77
2021/07/16 02:58:04;;;;;;;19.88;9.52;;;17.40;93.80;;;;;;5073548;28;20056;-77
2021/07/16 03:00:30;;;;;;;18.45;9.73;;;17.40;93.80;;;;;;5074753;28;20032;-77
2021/07/16 03:02:58;;;;;;;16.98;9.88;;;17.40;93.80;;;;;;5074797;28;20380;-77
2021/07/16 03:05:32;;;;;;;25.00;10.00;;;17.40;93.80;;;;;;5075948;28;20093;-77
2021/07/16 03:07:58;;;;;;;22.67;9.60;;;17.40;93.80;;;;;;5080852;28;20020;-77
2021/07/16 03:10:32;;;;;;;22.63;9.98;;;17.30;93.70;;;;;;5090425;28;20422;-77
2021/07/16 03:13:03;;;;;;;23.13;9.10;;;17.30;93.80;;;;;;5074678;28;20074;-77
2021/07/16 03:15:29;;;;;;;18.88;8.95;;;17.30;93.90;;;;;;5075645;28;20013;-77
2021/07/16 03:17:55;;;;;;;19.63;8.65;;;17.30;93.90;;;;;;5062917;28;20036;-77
2021/07/16 03:20:33;;;;;;;17.83;8.23;;;17.30;93.90;;;;;;5074523;28;20086;-77
2021/07/16 03:22:59;;;;;;;25.45;10.60;;;17.30;93.90;;;;;;5075910;28;20100;-77
2021/07/16 03:25:26;;;;;;;19.88;8.55;;;17.30;93.90;;;;;;5093079;28;20108;-77
2021/07/16 03:27:53;;;;;;;26.30;9.52;;;17.30;94.00;;;;;;5077023;28;20044;-77
2021/07/16 03:30:21;;;;;;;22.15;9.20;;;17.30;94.30;;;;;;5072881;28;20033;-77
2021/07/16 03:32:48;;;;;;;20.63;9.68;;;17.30;94.00;;;;;;5074648;28;20063;-77
2021/07/16 03:35:14;;;;;;;22.77;10.30;;;17.20;94.00;;;;;;5074235;28;20442;-77
2021/07/16 03:37:41;;;;;;;20.42;9.73;;;17.20;94.00;;;;;;5106320;28;20499;-77
2021/07/16 03:40:10;;;;;;;21.30;8.73;;;17.30;94.10;;;;;;5094164;28;20028;-77
2021/07/16 03:42:36;;;;;;;24.08;9.80;;;17.20;94.00;;;;;;5079765;28;20485;-77
2021/07/16 03:45:04;;;;;;;20.08;10.73;;;17.20;94.00;;;;;;5075761;28;20041;-77
2021/07/16 03:47:30;;;;;;;20.17;9.20;;;17.20;94.30;;;;;;5072751;28;20051;-77
2021/07/16 03:49:57;;;;;;;18.15;9.52;;;17.20;94.10;;;;;;5074184;28;20052;-77
2021/07/16 03:52:22;;;;;;;24.48;10.50;;;17.20;94.20;;;;;;5073907;28;20028;-77
2021/07/16 03:54:49;;;;;;;22.52;10.02;;;17.20;94.10;;;;;;5075766;28;20038;-77
2021/07/16 03:57:15;;;;;;;19.95;9.02;;;17.20;94.20;;;;;;5073464;28;20485;-77
2021/07/16 03:59:41;;;;;;;27.73;9.95;;;17.20;94.10;;;;;;5073528;28;20126;-77
2021/07/16 04:02:06;;;;;;;18.30;9.82;;;17.20;94.10;;;;;;5070769;28;20028;-77
2021/07/16 04:04:33;;;;;;;19.58;9.77;;;17.20;94.10;;;;;;5080967;28;20100;-77
2021/07/16 04:06:59;;;;;;;28.52;10.15;;;17.30;94.10;;;;;;5072261;28;20025;-77
2021/07/16 04:12:14;;;;;;;23.15;9.98;;;17.20;94.30;;;;;;5083411;28;20027;-77
2021/07/16 04:14:47;;;;;;;27.48;11.05;;;17.30;94.10;;;;;;5074952;28;20432;-77
2021/07/16 04:17:19;;;;;;;22.30;10.70;;;17.30;93.90;;;;;;5091323;28;20031;-77
2021/07/16 04:19:45;;;;;;;28.35;10.00;;;17.20;93.80;;;;;;5078553;28;20029;-77
2021/07/16 04:22:12;;;;;;;21.63;10.05;;;17.20;93.80;;;;;;5073174;28;20051;-77
2021/07/16 04:24:40;;;;;;;23.30;11.50;;;17.20;93.80;;;;;;5084684;28;20035;-77
2021/07/16 04:27:06;;;;;;;19.48;10.32;;;17.20;93.60;;;;;;5093024;28;20089;-77
2021/07/16 04:29:33;;;;;;;28.75;10.80;;;17.10;93.60;;;;;;5087762;28;20119;-77
2021/07/16 04:32:00;;;;;;;21.25;9.80;;;17.10;93.70;;;;;;5078867;28;20031;-77
2021/07/16 04:34:28;;;;;;;25.00;10.80;;;17.10;93.70;;;;;;5072433;28;20040;-77
2021/07/16 04:36:56;;;;;;;25.17;10.73;;;17.10;93.70;;;;;;5071875;28;20401;-77
2021/07/16 04:39:21;;;;;;;25.27;9.75;;;17.20;93.70;;;;;;5072973;28;20604;-77
2021/07/16 04:41:47;;;;;;;17.67;9.50;;;17.20;93.70;;;;;;5073144;28;20045;-77
2021/07/16 04:44:13;;;;;;;20.60;10.38;;;17.20;93.60;;;;;;5075489;28;20101;-77
2021/07/16 04:46:38;;;;;;;22.60;10.90;;;17.10;93.90;;;;;;5083429;28;20033;-77
2021/07/16 04:49:04;;;;;;;23.73;10.85;;;17.20;93.60;;;;;;5072193;28;20033;-77
2021/07/16 04:51:33;;;;;;;24.08;10.77;;;17.10;93.50;;;;;;5071882;28;20510;-77
2021/07/16 04:54:01;;;;;;;25.80;11.18;;;17.10;93.50;;;;;;5071692;28;20532;-77
2021/07/16 04:56:27;;;;;;;24.55;10.77;;;17.10;93.50;;;;;;5076118;28;20032;-77
2021/07/16 04:58:54;;;;;;;27.83;9.95;;;17.10;93.70;;;;;;5056209;28;20032;-77
2021/07/16 05:01:22;;;;;;;25.67;12.23;;;17.10;93.70;;;;;;5093307;28;20478;-77
2021/07/16 05:03:49;;;;;;;26.33;11.57;;;17.10;93.70;;;;;;5091188;28;20046;-77
2021/07/16 05:06:16;;;;;;;25.90;12.30;;;17.10;93.80;;;;;;5081293;28;20456;-77
2021/07/16 05:08:41;;;;;;;22.55;11.05;;;17.10;93.80;;;;;;5073715;28;20074;-77
2021/07/16 05:11:08;;;;;;;27.00;11.38;;;17.10;93.90;;;;;;5073515;28;20036;-77
2021/07/16 05:13:38;;;;;;;26.70;12.13;;;17.10;93.90;;;;;;5052415;28;20041;-77
2021/07/16 05:16:05;;;;;;;22.65;11.50;;;17.10;93.90;;;;;;5075620;28;20105;-77
2021/07/16 05:18:31;;;;;;;24.50;11.82;;;17.10;93.90;;;;;;5072513;28;20058;-77
2021/07/16 05:20:58;;;;;;;20.08;11.82;;;17.10;94.00;;;;;;5072597;28;20469;-78
2021/07/16 05:23:24;;;;;;;28.70;13.75;;;17.20;93.90;;;;;;5078443;28;20036;-76
2021/07/16 05:25:49;;;;;;;27.50;15.32;;;17.10;93.90;;;;;;5093945;28;20023;-78
2021/07/16 05:28:16;;;;;;;29.02;14.52;;;17.20;93.90;;;;;;5085886;28;20485;-77
2021/07/16 05:30:42;;;;;;;29.67;15.55;;;17.10;93.90;;;;;;5072328;28;20168;-77
2021/07/16 05:33:08;;;;;;;26.10;14.13;;;17.10;93.80;;;;;;5083494;28;20032;-77
2021/07/16 05:35:34;;;;;;;28.75;14.35;;;17.10;93.80;;;;;;5073957;28;20481;-77
2021/07/16 05:37:59;;;;;;;33.13;15.02;;;17.10;93.80;;;;;;5072587;28;20112;-77
2021/07/16 05:40:26;;;;;;;26.33;12.38;;;17.10;93.80;;;;;;5072373;28;20108;-77
2021/07/16 05:42:52;;;;;;;25.42;11.82;;;17.00;93.70;;;;;;5072470;28;20029;-78
2021/07/16 05:45:18;;;;;;;31.15;11.35;;;17.00;93.70;;;;;;5072453;28;20079;-77
2021/07/16 05:47:43;;;;;;;28.85;11.68;;;17.00;94.00;;;;;;5073376;28;20037;-77
2021/07/16 05:50:10;;;;;;;21.83;10.45;;;17.00;93.70;;;;;;5074706;28;20043;-77
2021/07/16 05:52:35;;;;;;;25.17;9.55;;;17.00;93.60;;;;;;5082365;28;20046;-77
2021/07/16 05:55:02;;;;;;;23.17;10.32;;;17.00;93.70;;;;;;5056399;28;20112;-78
2021/07/16 05:57:28;;;;;;;19.80;9.82;;;17.00;93.70;;;;;;5080859;28;20401;-78
2021/07/16 05:59:54;;;;;;;25.80;10.90;;;17.00;93.70;;;;;;5076540;28;20028;-78
2021/07/16 06:02:19;;;;;;;33.45;10.18;;;17.10;93.70;;;;;;5077693;28;20054;-77
2021/07/16 06:04:45;;;;;;;30.05;11.45;;;17.00;93.60;;;;;;5071078;28;20021;-77
2021/07/16 06:07:11;;;;;;;24.67;11.20;;;17.10;93.50;;;;;;5072650;28;20032;-77
2021/07/16 06:09:36;;;;;;;22.73;10.05;;;17.00;93.50;;;;;;5058685;28;20028;-77
2021/07/16 06:12:02;;;;;;;22.85;10.77;;;17.00;93.50;;;;;;5057978;28;20036;-77
2021/07/16 06:14:30;;;;;;;21.55;9.80;;;17.00;93.50;;;;;;5059490;28;20028;-77
2021/07/16 06:16:55;;;;;;;28.45;10.68;;;17.00;93.50;;;;;;5074778;28;20025;-77
2021/07/16 06:19:23;;;;;;;26.95;10.30;;;17.00;93.50;;;;;;5076121;28;20039;-77
2021/07/16 06:21:49;;;;;;;28.33;10.37;;;17.00;93.40;;;;;;5086942;28;20037;-77
2021/07/16 06:24:15;;;;;;;23.08;9.23;;;17.10;93.30;;;;;;5082348;28;20156;-77
2021/07/16 06:26:41;;;;;;;20.55;9.75;;;17.10;93.30;;;;;;5075616;28;20103;-77
2021/07/16 06:29:07;;;;;;;21.98;9.52;;;17.20;93.40;;;;;;5087960;28;20035;-77
2021/07/16 06:31:33;;;;;;;23.42;8.45;;;17.20;93.30;;;;;;5057583;28;20082;-77
2021/07/16 06:34:00;;;;;;;21.45;8.38;;;17.30;93.20;;;;;;5080284;28;20085;-77
2021/07/16 06:36:26;;;;;;;23.42;8.82;;;17.30;93.10;;;;;;5095611;28;20111;-77
2021/07/16 06:38:51;;;;;;;21.70;8.73;;;17.30;93.00;;;;;;5087767;28;20063;-77
2021/07/16 06:41:17;;;;;;;20.15;8.65;;;17.40;93.00;;;;;;5076545;28;20481;-77
2021/07/16 06:43:44;;;;;;;24.27;8.52;;;17.40;92.80;;;;;;5074899;28;20028;-77
2021/07/16 06:46:10;;;;;;;26.90;8.63;;;17.50;92.50;;;;;;5081943;28;20020;-77
2021/07/16 06:48:36;;;;;;;27.00;9.10;;;17.50;92.30;;;;;;5075021;28;20029;-78
2021/07/16 06:51:02;;;;;;;22.52;8.13;;;17.60;92.30;;;;;;5074903;28;20036;-77
2021/07/16 06:53:27;;;;;;;27.67;8.32;;;17.60;92.40;;;;;;5075080;28;20060;-77
2021/07/16 06:55:53;;;;;;;22.02;7.25;;;17.70;92.40;;;;;;5082318;28;20108;-77
2021/07/16 06:58:19;;;;;;;17.48;7.28;;;17.70;92.20;;;;;;5074824;28;20503;-77
2021/07/16 07:00:45;;;;;;;25.48;6.78;;;17.80;92.20;;;;;;5074932;28;20469;-77
2021/07/16 07:03:11;;;;;;;23.25;7.40;;;17.90;91.90;;;;;;5073746;28;20033;-77
2021/07/16 07:05:37;;;;;;;22.15;7.18;;;18.00;91.80;;;;;;5083021;28;20031;-77
2021/07/16 07:08:04;;;;;;;19.60;6.50;;;18.00;91.60;;;;;;5091620;28;20016;-77
2021/07/16 07:10:30;;;;;;;17.70;6.30;;;18.00;91.40;;;;;;5075982;28;20492;-78
2021/07/16 07:12:56;;;;;;;28.33;6.43;;;17.90;91.40;;;;;;5095146;28;20028;-78
2021/07/16 07:15:22;;;;;;;29.15;7.22;;;18.00;91.40;;;;;;5092206;28;20036;-78
2021/07/16 07:17:48;;;;;;;23.33;6.75;;;17.90;91.30;;;;;;5056719;28;20036;-78
2021/07/16 07:20:13;;;;;;;23.33;6.78;;;17.90;91.20;;;;;;5073381;28;20041;-78
2021/07/16 07:22:41;;;;;;;22.23;6.90;;;18.00;91.60;;;;;;5094765;28;20039;-78
2021/07/16 07:25:08;;;;;;;18.75;6.18;;;18.00;91.30;;;;;;5095027;28;20102;-78
2021/07/16 07:27:34;;;;;;;23.05;6.47;;;18.00;90.90;;;;;;5091527;28;20040;-77
2021/07/16 07:30:00;;;;;;;21.80;5.72;;;18.00;91.00;;;;;;5073349;28;20039;-77
2021/07/16 07:32:25;;;;;;;24.25;5.70;;;18.00;91.10;;;;;;5074336;28;20107;-77
2021/07/16 07:34:51;;;;;;;17.70;5.15;;;18.10;90.70;;;;;;5056354;28;20468;-77
2021/07/16 07:37:17;;;;;;;22.45;4.90;;;18.10;90.70;;;;;;5074037;28;20389;-77
2021/07/16 07:39:42;;;;;;;22.27;4.80;;;18.10;90.10;;;;;;5080698;28;20063;-77
2021/07/16 07:42:11;;;;;;;22.58;4.88;;;18.10;89.50;;;;;;5078367;28;20035;-77
2021/07/16 07:44:37;;;;;;;22.90;5.28;;;18.10;89.10;;;;;;5080368;28;20020;-77
2021/07/16 07:47:03;;;;;;;20.67;4.95;;;18.20;90.20;;;;;;5093080;28;20119;-78
2021/07/16 07:49:29;;;;;;;19.90;4.80;;;18.20;89.40;;;;;;5089884;28;20086;-78
2021/07/16 07:51:54;;;;;;;26.27;5.22;;;18.20;88.70;;;;;;5073076;28;20485;-77
2021/07/16 07:54:20;;;;;;;24.55;4.40;;;18.20;88.60;;;;;;5075708;28;20116;-77
2021/07/16 07:56:46;;;;;;;17.73;4.85;;;18.30;89.00;;;;;;5074211;28;20040;-80
2021/07/16 07:59:12;;;;;;;28.17;5.53;;;18.30;89.50;;;;;;5087961;28;20035;-81
2021/07/16 08:01:37;;;;;;;20.13;5.30;;;18.30;89.90;;;;;;5076239;28;20031;-78
2021/07/16 08:04:03;;;;;;;25.63;5.00;;;18.40;89.80;;;;;;5078901;28;20032;-77
2021/07/16 08:06:29;;;;;;;31.20;4.63;;;18.50;89.80;;;;;;5073811;28;20385;-76
2021/07/16 08:08:55;;;;;;;28.50;5.00;;;18.60;89.00;;;;;;5084936;28;20031;-77
2021/07/16 08:11:21;;;;;;;27.15;5.00;;;18.70;87.90;;;;;;5092599;28;20016;-78
2021/07/16 08:13:46;;;;;;;21.08;4.45;;;18.80;88.50;;;;;;5092172;28;20393;-77
2021/07/16 08:16:12;;;;;;;21.30;4.70;;;18.80;86.10;;;;;;5075380;28;20470;-77
2021/07/16 08:18:38;;;;;;;17.63;4.22;;;18.80;86.50;;;;;;5080547;28;20052;-77
2021/07/16 08:21:03;;;;;;;26.88;5.03;;;18.90;86.40;;;;;;5080446;28;20517;-77
2021/07/16 08:23:29;;;;;;;20.77;4.22;;;19.10;86.10;;;;;;5076654;28;20020;-76
2021/07/16 08:25:54;;;;;;;20.00;4.10;;;19.20;85.50;;;;;;5093501;28;20024;-77
2021/07/16 08:28:20;;;;;;;21.77;4.30;;;19.30;85.60;;;;;;5077162;28;20080;-77
2021/07/16 08:30:46;;;;;;;20.63;4.38;;;19.40;85.50;;;;;;5071778;28;20064;-76
2021/07/16 08:33:11;;;;;;;21.45;4.47;;;19.50;84.70;;;;;;5083404;28;20024;-77
2021/07/16 08:35:37;;;;;;;19.23;4.38;;;19.40;84.00;;;;;;5073254;28;20031;-77
2021/07/16 08:38:05;;;;;;;20.38;4.63;;;19.50;84.90;;;;;;5083213;28;20035;-77
2021/07/16 08:40:32;;;;;;;21.25;4.45;;;19.40;84.30;;;;;;5071555;28;20077;-77
2021/07/16 08:42:58;;;;;;;21.30;4.78;;;19.40;84.70;;;;;;5073334;28;20036;-77
2021/07/16 08:45:26;;;;;;;20.88;4.47;;;19.40;85.20;;;;;;5072988;28;20035;-77
2021/07/16 08:47:52;;;;;;;21.02;4.78;;;19.40;85.20;;;;;;5073922;28;20111;-77
2021/07/16 08:50:18;;;;;;;20.60;4.18;;;19.30;85.50;;;;;;5087531;28;20036;-78
2021/07/16 08:52:46;;;;;;;20.10;4.78;;;19.30;84.90;;;;;;5076513;28;20039;-79
2021/07/16 08:55:13;;;;;;;23.60;4.93;;;19.10;84.50;;;;;;5093319;28;20024;-78
2021/07/16 08:57:39;;;;;;;19.88;5.05;;;19.10;85.30;;;;;;5088898;28;20474;-79
2021/07/16 09:00:12;;;;;;;20.02;5.18;;;19.10;85.70;;;;;;5073621;28;20032;-79
2021/07/16 09:02:54;;;;;;;24.02;5.32;;;19.10;86.00;;;;;;5071950;28;20080;-79
2021/07/16 09:05:37;;;;;;;22.02;4.47;;;19.10;86.00;;;;;;5073016;28;20036;-79
2021/07/16 09:08:04;;;;;;;23.35;5.57;;;19.10;86.10;;;;;;5090700;28;20066;-79
2021/07/16 09:10:30;;;;;;;19.02;4.60;;;19.10;86.10;;;;;;5093537;28;20387;-78
2021/07/16 09:13:08;;;;;;;25.17;5.03;;;19.10;85.90;;;;;;5090010;28;20107;-79
2021/07/16 09:15:34;;;;;;;21.07;4.53;;;19.10;86.00;;;;;;5088632;28;20043;-78
2021/07/16 09:18:24;;;;;;;16.38;4.35;;;19.10;85.90;;;;;;5076936;28;20115;-78
2021/07/16 09:21:03;;;;;;;17.60;4.72;;;19.20;86.00;;;;;;5071690;28;20060;-77
2021/07/16 09:23:40;;;;;;;24.65;4.50;;;19.20;86.20;;;;;;5071681;28;20354;-76
2021/07/16 09:26:13;;;;;;;22.80;5.30;;;19.20;86.10;;;;;;5071784;28;20016;-77
2021/07/16 09:28:43;;;;;;;23.83;5.03;;;19.20;85.90;;;;;;5071878;28;20455;-77
2021/07/16 09:31:19;;;;;;;14.63;4.28;;;19.20;85.80;;;;;;5072903;28;20056;-76
2021/07/16 09:33:50;;;;;;;22.17;4.70;;;19.20;85.80;;;;;;5089240;28;20539;-75
2021/07/16 09:36:42;;;;;;;20.85;4.97;;;19.20;85.90;;;;;;5092817;28;20024;-75
2021/07/16 09:39:11;;;;;;;15.15;4.43;;;19.30;85.60;;;;;;5062447;28;20051;-83
2021/07/16 09:41:55;;;;;;;23.15;4.60;;;19.40;85.70;;;;;;5072979;28;20025;-84
2021/07/16 09:44:31;;;;;;;22.23;5.30;;;19.50;85.10;;;;;;5075858;28;20025;-85
2021/07/16 09:47:13;;;;;;;16.02;4.85;;;19.60;85.00;;;;;;5076779;28;20025;-76
2021/07/16 09:49:40;;;;;;;20.17;4.88;;;19.80;85.10;;;;;;5076398;28;20472;-76
2021/07/16 09:52:17;;;;;;;27.88;5.38;;;19.80;83.70;;;;;;5081138;28;20086;-76
2021/07/16 09:55:11;;;;;;;16.33;4.57;;;19.80;83.70;;;;;;5094542;28;20083;-76
2021/07/16 09:57:55;;;;;;;22.55;5.32;;;19.80;83.50;;;;;;5094704;28;20290;-76
2021/07/16 10:00:26;;;;;;;22.67;5.68;;;19.80;83.80;;;;;;5094965;28;20035;-76
2021/07/16 10:02:56;;;;;;;19.67;4.53;;;19.80;84.10;;;;;;5094485;28;20051;-76
2021/07/16 10:05:23;;;;;;;21.55;4.53;;;19.90;83.10;;;;;;5095061;28;20056;-75
2021/07/16 10:07:49;;;;;;;15.40;4.28;;;19.90;83.00;;;;;;5085563;28;20025;-76
2021/07/16 10:10:18;;;;;;;16.55;4.20;;;19.90;83.30;;;;;;5061608;28;20473;-76
2021/07/16 10:12:46;;;;;;;19.35;4.93;;;19.90;82.90;;;;;;5075580;28;20103;-75
2021/07/16 10:15:15;;;;;;;20.60;5.15;;;20.00;83.10;;;;;;5091869;28;20029;-76
2021/07/16 10:17:41;;;;;;;18.85;5.38;;;20.00;83.40;;;;;;5085419;28;20078;-75
2021/07/16 10:20:11;;;;;;;26.25;6.07;;;20.10;83.60;;;;;;5080658;28;20063;-79
2021/07/16 10:22:41;;;;;;;23.95;5.75;;;20.10;83.70;;;;;;5096130;28;20020;-78
2021/07/16 10:25:09;;;;;;;19.92;5.50;;;20.10;84.00;;;;;;5086651;28;20017;-78
2021/07/16 10:27:35;;;;;;;24.63;5.45;;;20.00;84.00;;;;;;5081810;28;20094;-78
2021/07/16 10:30:17;;;;;;;19.77;5.22;;;20.00;83.90;;;;;;5078544;28;20040;-77
2021/07/16 10:32:45;;;;;;;19.65;5.32;;;20.00;84.00;;;;;;5093457;28;20119;-78
2021/07/16 10:35:17;;;;;;;24.92;6.03;;;20.10;84.20;;;;;;5088073;28;20481;-78
2021/07/16 10:37:43;;;;;;;30.95;7.50;;;20.30;83.90;;;;;;5083647;28;20536;-78
2021/07/16 10:40:29;;;;;;;24.85;7.30;;;20.50;83.30;;;;;;5074930;28;20032;-78
2021/07/16 10:42:55;;;;;;;31.88;6.97;;;20.60;83.10;;;;;;5090323;28;20103;-78
2021/07/16 10:45:34;;;;;;;24.33;6.20;;;20.50;81.80;;;;;;5095830;28;20099;-78
2021/07/16 10:48:14;;;;;;;19.60;5.65;;;20.40;81.90;;;;;;5095969;28;20024;-78
2021/07/16 10:50:40;;;;;;;16.52;5.45;;;20.30;82.30;;;;;;5086457;28;20405;-77
2021/07/16 10:53:12;;;;;;;17.77;6.10;;;20.30;82.50;;;;;;5084352;28;20037;-77
2021/07/16 10:55:38;;;;;;;27.90;6.50;;;20.20;82.80;;;;;;5076602;28;20470;-77
2021/07/16 10:58:26;;;;;;;22.88;5.55;;;20.20;83.00;;;;;;5081758;28;20032;-78
2021/07/16 11:00:54;;;;;;;24.73;6.00;;;20.20;83.00;;;;;;5066695;28;20028;-77
2021/07/16 11:03:22;;;;;;;26.88;6.80;;;20.20;83.30;;;;;;5075130;28;20435;-78
2021/07/16 11:05:47;;;;;;;22.07;5.57;;;20.10;83.70;;;;;;5072205;28;20060;-78
2021/07/16 11:08:35;;;;;;;25.75;6.03;;;20.10;83.80;;;;;;5075297;28;20289;-78
2021/07/16 11:11:04;;;;;;;25.23;6.20;;;20.10;83.80;;;;;;5072321;28;20389;-78
2021/07/16 11:13:49;;;;;;;25.55;6.25;;;20.00;83.80;;;;;;5067517;28;20021;-78
2021/07/16 11:16:34;;;;;;;30.38;5.70;;;20.00;83.60;;;;;;5076656;28;20040;-77
2021/07/16 11:19:14;;;;;;;23.13;5.85;;;20.10;83.70;;;;;;5074778;28;20020;-78
2021/07/16 11:24:15;;;;;;;19.20;5.70;;;20.10;83.20;;;;;;5074770;28;20028;-78
2021/07/16 11:26:54;;;;;;;20.77;6.35;;;20.20;83.30;;;;;;5073108;28;20473;-78
2021/07/16 11:29:25;;;;;;;23.00;6.05;;;20.10;83.20;;;;;;5060196;28;20067;-78
2021/07/16 11:32:13;;;;;;;24.08;5.82;;;20.10;83.40;;;;;;5075966;28;20393;-78
2021/07/16 11:35:01;;;;;;;24.00;5.53;;;20.10;83.60;;;;;;5074642;28;20097;-78
2021/07/16 11:37:26;;;;;;;23.40;5.57;;;20.10;83.20;;;;;;5074694;28;20122;-78
2021/07/16 11:40:02;;;;;;;20.65;5.60;;;20.20;83.30;;;;;;5082698;28;20384;-77
2021/07/16 11:42:28;;;;;;;23.75;6.15;;;20.20;83.20;;;;;;5078696;28;20106;-77
2021/07/16 11:44:54;;;;;;;29.52;6.40;;;20.30;83.20;;;;;;5085736;28;20067;-77
2021/07/16 11:47:22;;;;;;;25.52;6.20;;;20.40;82.70;;;;;;5094418;28;20103;-77
2021/07/16 11:49:50;;;;;;;23.17;5.90;;;20.30;82.60;;;;;;5072910;28;20420;-77
2021/07/16 11:52:18;;;;;;;25.08;5.85;;;20.40;83.10;;;;;;5073238;28;20036;-77
2021/07/16 11:54:44;;;;;;;33.43;6.60;;;20.50;83.30;;;;;;5073925;28;20058;-77
2021/07/16 11:57:10;;;;;;;24.08;6.20;;;20.70;82.60;;;;;;5077734;28;20380;-77
2021/07/16 11:59:35;;;;;;;18.88;5.35;;;20.80;81.90;;;;;;5092919;28;20028;-77
2021/07/16 12:02:13;;;;;;;29.15;6.45;;;20.90;81.80;;;;;;5079317;28;20090;-85
2021/07/16 12:04:40;;;;;;;17.85;4.90;;;21.00;81.20;;;;;;5074166;28;20021;-86
2021/07/16 12:07:07;;;;;;;25.10;6.28;;;21.00;81.30;;;;;;5074185;28;20028;-85
2021/07/16 12:09:44;;;;;;;19.67;5.32;;;21.10;81.40;;;;;;5074247;28;20362;-84
2021/07/16 12:12:28;;;;;;;26.63;6.05;;;21.10;80.70;;;;;;5073045;28;20166;-85
2021/07/16 12:14:56;;;;;;;26.02;5.82;;;21.10;80.70;;;;;;5074180;28;20060;-85
2021/07/16 12:17:24;;;;;;;17.38;5.05;;;21.10;80.90;;;;;;5072780;28;20477;-85
2021/07/16 12:19:51;;;;;;;23.35;5.80;;;21.10;80.50;;;;;;5075414;28;20043;-86
2021/07/16 12:22:20;;;;;;;18.40;5.10;;;21.10;80.70;;;;;;5076445;28;20047;-85
2021/07/16 12:24:46;;;;;;;20.80;5.20;;;21.00;80.70;;;;;;5074132;28;20021;-86
2021/07/16 12:27:14;;;;;;;21.17;5.53;;;21.10;80.70;;;;;;5074280;28;20021;-86
2021/07/16 12:29:40;;;;;;;20.20;5.28;;;21.20;80.40;;;;;;5055700;28;20115;-86
2021/07/16 12:32:09;;;;;;;19.40;5.65;;;21.40;79.70;;;;;;5073806;28;20028;-86
2021/07/16 12:34:35;;;;;;;19.50;5.00;;;21.50;79.20;;;;;;5074087;28;20029;-86
2021/07/16 12:37:13;;;;;;;29.63;5.90;;;21.70;78.70;;;;;;5073872;28;20032;-86
2021/07/16 12:39:41;;;;;;;20.75;5.40;;;21.90;77.60;;;;;;5073924;28;20029;-86
2021/07/16 12:42:14;;;;;;;21.10;5.43;;;22.20;76.20;;;;;;5073849;28;20385;-85
2021/07/16 12:45:10;;;;;;;29.48;6.22;;;22.50;75.40;;;;;;5072127;28;20021;-80